チャーチル の空港の天気 - METARとTAF

チャーチル空港 ( CYYQ / YYQ ) - カナダ マニトバ州Churchill
飛行場実況気象(Metar)
観測時間01/21 12:00 CST (01/21 18:00 UTC)
風向・風速西 4m/s
視程10km以上
天気現象
全天の4割程度の雲 雲底高度 210m
気温-29℃
湿度75%
気圧1032.6hPa
METARCYYQ 211800Z 27007KT 15SM SCT007 M29/M32 A3048 RMK ST3 SLP326
過去の天気等 Google飛行場航空写真 Wunderground天気予報

過去48時間のMETAR

飛行場予報(TAF)
発表時間: 1/21 11:38 CST (1/21 17:38 UTC)
予報対象時間: 21日12時 CST ~ 22日12時 CST
風向・風速西北西 4m/s
視程6,440m
天気現象弱い雪
全天の8割程度の雲 雲底高度 150m
21日12時 CST ~ 22日2時 CST に一時的に
視程10km以上
天気現象運行に影響にある天気現象が終了
全天の4割程度の雲 雲底高度 240m
22日2時 CST から
風向・風速西南西 3m/s
視程10km以上
全天の4割程度の雲 雲底高度 240m
全天の8割程度の雲 雲底高度 2,740m
TAF CYYQ 211738Z 2118/2218 29008KT 4SM -SN BKN005
TEMPO 2118/2208 P6SM NSW SCT008
FM220800 24005KT P6SM SCT008 BKN090 RMK NXT FCST BY 220000Z